createdAt,value
2022-11-01T00:01:45.007Z,98041.53
2022-11-01T00:04:13.137Z,98030.19
2022-11-01T00:06:42.381Z,98035.03
2022-11-01T00:09:10.215Z,98029.09
2022-11-01T00:11:38.223Z,98028.81
2022-11-01T00:14:06.523Z,98013.97
2022-11-01T00:16:34.491Z,98017.50
2022-11-01T00:19:02.387Z,98031.81
2022-11-01T00:21:30.384Z,98015.06
2022-11-01T00:23:59.683Z,98026.94
2022-11-01T00:26:27.609Z,98032.88
2022-11-01T00:28:56.047Z,98025.59
2022-11-01T00:31:24.844Z,98031.81
2022-11-01T00:33:52.849Z,98028.59
2022-11-01T00:36:20.854Z,98021.25
2022-11-01T00:38:51.228Z,98028.81
2022-11-01T00:41:21.862Z,98018.00
2022-11-01T00:43:50.284Z,98017.50
2022-11-01T00:46:18.487Z,98017.19
2022-11-01T00:48:46.668Z,98012.09
2022-11-01T00:51:14.571Z,98015.31
2022-11-01T00:53:42.716Z,98004.78
2022-11-01T00:56:10.675Z,98012.34
2022-11-01T00:59:00.218Z,98009.09
2022-11-01T01:01:45.830Z,98012.91
2022-11-01T01:04:13.817Z,98010.19
2022-11-01T01:06:41.676Z,98020.19
2022-11-01T01:09:09.469Z,98030.69
2022-11-01T01:11:37.448Z,98017.19
2022-11-01T01:14:06.715Z,98016.94
2022-11-01T01:16:34.738Z,98002.09
2022-11-01T01:19:03.324Z,98010.75
2022-11-01T01:21:31.264Z,98012.91
2022-11-01T01:23:59.421Z,98017.78
2022-11-01T01:26:27.374Z,98011.00
2022-11-01T01:28:55.712Z,98010.19
2022-11-01T01:31:24.977Z,98008.88
2022-11-01T01:33:52.990Z,98012.94
2022-11-01T01:36:21.104Z,98001.03
2022-11-01T01:38:49.012Z,97999.69
2022-11-01T01:41:34.290Z,97999.97
2022-11-01T01:44:03.467Z,97988.63
2022-11-01T01:46:32.708Z,97991.59
2022-11-01T01:49:01.233Z,97993.75
2022-11-01T01:51:30.811Z,97994.00
2022-11-01T01:54:00.885Z,97989.44
2022-11-01T01:56:32.461Z,97990.25
2022-11-01T01:59:04.301Z,97999.66
2022-11-01T02:01:35.405Z,97982.69
2022-11-01T02:04:04.811Z,97991.03
2022-11-01T02:06:34.100Z,97990.53
2022-11-01T02:09:05.025Z,97986.97
2022-11-01T02:11:33.042Z,97978.59
2022-11-01T02:14:01.230Z,97976.44
2022-11-01T02:16:48.123Z,97970.22
2022-11-01T02:19:39.616Z,97972.94
2022-11-01T02:22:13.580Z,97974.28
2022-11-01T02:25:10.723Z,97982.69
2022-11-01T02:28:02.194Z,97993.19
2022-11-01T02:30:41.015Z,97992.91
2022-11-01T02:33:18.978Z,97990.75
2022-11-01T02:35:59.405Z,97992.38
2022-11-01T02:38:30.923Z,97994.25
2022-11-01T02:41:05.104Z,97987.19
2022-11-01T02:43:48.035Z,97989.63
2022-11-01T02:46:35.068Z,97988.31
2022-11-01T02:49:05.618Z,97991.53
2022-11-01T02:51:35.344Z,97995.59
2022-11-01T02:54:06.495Z,97995.84
2022-11-01T02:56:34.851Z,98000.16
2022-11-01T02:59:02.927Z,98003.69
2022-11-01T03:01:34.558Z,97996.94
2022-11-01T03:04:04.988Z,97999.38
2022-11-01T03:06:38.827Z,98004.25
2022-11-01T03:09:10.420Z,98003.72
2022-11-01T03:11:49.647Z,98016.69
2022-11-01T03:14:25.990Z,98028.81
2022-11-01T03:17:00.571Z,98036.66
2022-11-01T03:19:39.450Z,98035.88
2022-11-01T03:22:12.412Z,98033.69
2022-11-01T03:24:47.246Z,98032.31
2022-11-01T03:27:21.066Z,98035.03
2022-11-01T03:29:57.279Z,98030.69
2022-11-01T03:32:29.270Z,98032.88
2022-11-01T03:35:01.262Z,98039.38
2022-11-01T03:37:32.513Z,98035.59
2022-11-01T03:40:04.202Z,98037.47
2022-11-01T03:42:33.974Z,98033.94
2022-11-01T03:45:11.802Z,98045.56
2022-11-01T03:47:39.903Z,98059.09
2022-11-01T03:50:17.651Z,98047.00
2022-11-01T03:52:45.992Z,98059.50
2022-11-01T03:55:20.867Z,98062.03
2022-11-01T03:57:50.230Z,98066.94
2022-11-01T04:00:21.171Z,98068.56
2022-11-01T04:02:49.295Z,98072.13
2022-11-01T04:05:19.155Z,98075.66
2022-11-01T04:07:47.700Z,98073.22
2022-11-01T04:10:15.903Z,98082.38
2022-11-01T04:12:46.394Z,98094.84
2022-11-01T04:15:32.296Z,98090.75
2022-11-01T04:18:25.364Z,98091.59
2022-11-01T04:20:55.303Z,98091.56
2022-11-01T04:23:23.464Z,98098.31
2022-11-01T04:25:51.311Z,98106.97
2022-11-01T04:28:19.352Z,98109.03
2022-11-01T04:30:47.183Z,98114.16
2022-11-01T04:33:15.221Z,98114.13
2022-11-01T04:35:43.256Z,98115.69
2022-11-01T04:38:13.631Z,98112.91
2022-11-01T04:40:41.855Z,98111.25
2022-11-01T04:43:10.523Z,98116.91
2022-11-01T04:45:38.482Z,98111.97
2022-11-01T04:48:08.556Z,98115.75
2022-11-01T04:50:36.964Z,98119.00
2022-11-01T04:53:05.428Z,98123.91
2022-11-01T04:55:35.022Z,98123.03
2022-11-01T04:58:04.430Z,98134.41
2022-11-01T05:00:33.070Z,98136.28
2022-11-01T05:03:03.985Z,98136.81
2022-11-01T05:05:32.791Z,98149.81
2022-11-01T05:10:30.773Z,98146.44
2022-11-01T05:13:04.321Z,98156.41
2022-11-01T05:15:32.966Z,98164.31
2022-11-01T05:18:01.907Z,98157.50
2022-11-01T05:20:30.589Z,98163.88
2022-11-01T05:23:00.786Z,98169.69
2022-11-01T05:25:30.557Z,98169.69
2022-11-01T05:28:05.802Z,98168.59
2022-11-01T05:30:33.944Z,98185.91
2022-11-01T05:33:02.827Z,98197.88
2022-11-01T05:35:31.411Z,98195.38
2022-11-01T05:37:59.355Z,98189.66
2022-11-01T05:40:28.735Z,98178.28
2022-11-01T05:42:56.533Z,98171.22
2022-11-01T05:45:26.267Z,98175.28
2022-11-01T05:47:54.195Z,98178.66
2022-11-01T05:50:22.208Z,98177.84
2022-11-01T05:52:50.155Z,98177.47
2022-11-01T05:55:18.096Z,98172.63
2022-11-01T06:00:14.432Z,98158.53
2022-11-01T06:02:43.837Z,98155.03
2022-11-01T06:05:11.737Z,98161.03
2022-11-01T06:07:39.569Z,98164.81
2022-11-01T06:10:08.306Z,98177.91
2022-11-01T06:12:36.179Z,98184.44
2022-11-01T06:15:04.186Z,98195.28
2022-11-01T06:17:32.040Z,98197.19
2022-11-01T06:20:01.347Z,98211.34
2022-11-01T06:22:29.270Z,98215.47
2022-11-01T06:24:57.236Z,98206.00
2022-11-01T06:27:25.408Z,98210.41
2022-11-01T06:29:53.416Z,98225.09
2022-11-01T06:32:21.332Z,98226.19
2022-11-01T06:34:49.145Z,98234.94
2022-11-01T06:37:18.410Z,98222.19
2022-11-01T06:39:46.259Z,98211.06
2022-11-01T06:42:14.366Z,98220.09
2022-11-01T06:44:42.283Z,98231.47
2022-11-01T06:47:10.435Z,98245.03
2022-11-01T06:49:38.382Z,98242.59
2022-11-01T06:52:06.868Z,98236.91
2022-11-01T06:54:36.291Z,98238.81
2022-11-01T06:57:04.466Z,98250.22
2022-11-01T06:59:32.432Z,98258.91
2022-11-01T07:02:00.551Z,98271.91
2022-11-01T07:04:29.782Z,98285.47
2022-11-01T07:06:57.755Z,98281.66
2022-11-01T07:09:25.706Z,98289.00
2022-11-01T07:11:57.420Z,98286.56
2022-11-01T07:14:25.308Z,98291.72
2022-11-01T07:16:53.165Z,98298.50
2022-11-01T07:19:23.748Z,98305.84
2022-11-01T07:21:51.758Z,98288.75
2022-11-01T07:24:22.010Z,98293.38
2022-11-01T07:26:49.964Z,98291.47
2022-11-01T07:29:30.735Z,98296.34
2022-11-01T07:31:58.618Z,98297.72
2022-11-01T07:34:26.610Z,98303.41
2022-11-01T07:36:54.622Z,98306.41
2022-11-01T07:39:27.738Z,98300.44
2022-11-01T07:41:55.879Z,98294.19
2022-11-01T07:44:26.484Z,98287.13
2022-11-01T07:46:54.285Z,98290.13
2022-11-01T07:49:22.089Z,98299.06
2022-11-01T07:51:49.978Z,98305.59
2022-11-01T07:54:19.212Z,98303.97
2022-11-01T07:56:55.183Z,98301.78
2022-11-01T07:59:40.684Z,98324.03
2022-11-01T08:02:15.741Z,98325.94
2022-11-01T08:04:43.579Z,98329.72
2022-11-01T08:07:11.483Z,98316.69
2022-11-01T08:09:39.308Z,98310.72
2022-11-01T08:12:07.725Z,98309.34
2022-11-01T08:14:36.579Z,98314.25
2022-11-01T08:17:16.513Z,98319.13
2022-11-01T08:19:44.459Z,98322.66
2022-11-01T08:22:12.548Z,98336.19
2022-11-01T08:24:40.467Z,98338.34
2022-11-01T08:28:04.209Z,98341.03
2022-11-01T08:30:32.972Z,98333.44
2022-11-01T08:33:03.718Z,98342.38
2022-11-01T08:35:33.581Z,98339.94
2022-11-01T08:38:03.464Z,98345.88
2022-11-01T08:40:33.581Z,98359.16
2022-11-01T08:43:02.160Z,98350.72
2022-11-01T08:45:30.908Z,98356.66
2022-11-01T08:48:00.313Z,98355.03
2022-11-01T08:50:30.072Z,98353.38
2022-11-01T08:52:58.238Z,98357.16
2022-11-01T08:55:26.515Z,98351.19
2022-11-01T08:57:54.496Z,98367.47
2022-11-01T09:00:22.817Z,98364.47
2022-11-01T09:02:50.992Z,98368.56
2022-11-01T09:05:19.680Z,98361.22
2022-11-01T09:07:49.621Z,98361.97
2022-11-01T09:10:18.201Z,98363.13
2022-11-01T09:12:46.292Z,98367.41
2022-11-01T09:15:14.205Z,98368.50
2022-11-01T09:17:42.127Z,98369.03
2022-11-01T09:20:11.154Z,98359.28
2022-11-01T09:22:43.809Z,98373.66
2022-11-01T09:25:13.700Z,98370.94
2022-11-01T09:27:46.411Z,98365.50
2022-11-01T09:30:16.991Z,98374.75
2022-11-01T09:32:47.550Z,98378.81
2022-11-01T09:35:15.600Z,98379.88
2022-11-01T09:37:43.683Z,98381.22
2022-11-01T09:40:15.349Z,98382.28
2022-11-01T09:42:45.599Z,98385.50
2022-11-01T09:45:18.774Z,98387.34
2022-11-01T09:47:51.199Z,98381.06
2022-11-01T09:50:23.633Z,98383.97
2022-11-01T09:52:56.024Z,98382.75
2022-11-01T09:56:02.564Z,98384.84
2022-11-01T10:02:56.819Z,98382.34
2022-11-01T10:07:23.454Z,98379.66
2022-11-01T10:10:16.215Z,98390.03
2022-11-01T10:37:26.868Z,98387.00
2022-11-01T10:43:19.795Z,98392.59
2022-11-01T10:48:03.389Z,98387.13
2022-11-01T10:50:11.206Z,98376.81
2022-11-01T10:52:37.213Z,98383.09
2022-11-01T10:55:21.277Z,98386.09
2022-11-01T10:57:53.569Z,98383.19
2022-11-01T11:00:24.646Z,98379.50
2022-11-01T11:02:58.857Z,98384.97
2022-11-01T11:05:46.891Z,98385.63
2022-11-01T11:08:38.857Z,98382.91
2022-11-01T11:11:14.087Z,98391.09
2022-11-01T11:14:23.087Z,98395.00
2022-11-01T11:17:09.857Z,98389.47
2022-11-01T11:20:28.000Z,98388.50
2022-11-01T11:23:43.968Z,98393.41
2022-11-01T11:26:57.283Z,98386.50
2022-11-01T11:30:01.221Z,98390.56
2022-11-01T11:32:31.831Z,98389.75
2022-11-01T11:35:08.645Z,98392.53
2022-11-01T11:40:50.837Z,98390.09
2022-11-01T11:43:25.458Z,98386.22
2022-11-01T11:46:05.984Z,98386.81
2022-11-01T11:52:28.494Z,98378.72
2022-11-01T11:58:48.535Z,98390.97
2022-11-01T11:59:09.319Z,98377.56
2022-11-01T12:01:22.192Z,98381.22
2022-11-01T12:03:59.467Z,98385.28
2022-11-01T12:06:29.464Z,98382.44
2022-11-01T12:08:58.789Z,98389.88
2022-11-01T12:11:47.561Z,98389.59
2022-11-01T12:14:37.613Z,98388.78
2022-11-01T12:17:36.384Z,98397.59
2022-11-01T12:20:48.722Z,98387.09
2022-11-01T12:23:57.366Z,98384.13
2022-11-01T12:26:24.805Z,98385.81
2022-11-01T12:28:59.430Z,98400.28
2022-11-01T12:31:31.577Z,98391.22
2022-11-01T12:34:06.530Z,98398.09
2022-11-01T12:36:43.635Z,98399.81
2022-11-01T12:39:25.716Z,98407.53
2022-11-01T12:42:00.622Z,98406.78
2022-11-01T12:44:33.969Z,98405.72
2022-11-01T12:47:08.378Z,98406.03
2022-11-01T12:49:43.310Z,98403.88
2022-11-01T12:52:20.096Z,98403.63
2022-11-01T12:54:58.433Z,98402.63
2022-11-01T12:57:26.407Z,98417.84
2022-11-01T12:59:54.331Z,98426.91
2022-11-01T13:02:53.291Z,98423.13
2022-11-01T13:05:25.129Z,98425.66
2022-11-01T13:08:01.586Z,98426.78
2022-11-01T13:10:34.080Z,98416.72
2022-11-01T13:13:15.889Z,98423.53
2022-11-01T13:15:58.670Z,98415.50
2022-11-01T13:18:39.160Z,98418.09
2022-11-01T13:21:14.474Z,98408.75
2022-11-01T13:23:49.141Z,98402.66
2022-11-01T13:26:23.518Z,98404.50
2022-11-01T13:29:02.294Z,98401.19
2022-11-01T13:31:41.340Z,98404.53
2022-11-01T13:34:37.540Z,98401.94
2022-11-01T13:37:11.429Z,98405.75
2022-11-01T13:39:49.805Z,98411.69
2022-11-01T13:42:21.348Z,98413.31
2022-11-01T13:44:53.873Z,98419.03
2022-11-01T13:47:49.627Z,98411.03
2022-11-01T13:50:51.651Z,98400.38
2022-11-01T13:53:24.583Z,98402.88
2022-11-01T13:55:57.990Z,98397.72
2022-11-01T13:58:27.217Z,98402.38
2022-11-01T14:00:56.316Z,98412.75
2022-11-01T14:03:29.659Z,98420.06
2022-11-01T14:09:31.742Z,98420.59
2022-11-01T14:12:11.865Z,98419.53
2022-11-01T14:14:53.338Z,98407.00
2022-11-01T14:17:56.001Z,98401.94
2022-11-01T14:20:51.561Z,98401.97
2022-11-01T14:23:59.844Z,98402.56
2022-11-01T14:26:50.319Z,98413.41
2022-11-01T14:29:18.362Z,98402.31
2022-11-01T14:31:49.075Z,98419.72
2022-11-01T14:34:27.618Z,98415.38
2022-11-01T14:36:59.205Z,98418.63
2022-11-01T14:39:36.076Z,98411.94
2022-11-01T14:42:06.540Z,98411.56
2022-11-01T14:44:50.618Z,98417.03
2022-11-01T14:47:27.456Z,98421.91
2022-11-01T14:50:02.189Z,98420.63
2022-11-01T14:52:35.924Z,98418.72
2022-11-01T14:55:13.875Z,98424.72
2022-11-01T14:57:41.780Z,98427.44
2022-11-01T15:00:30.155Z,98426.91
2022-11-01T15:03:05.094Z,98438.06
2022-11-01T15:05:33.181Z,98438.63
2022-11-01T15:08:01.440Z,98442.25
2022-11-01T15:10:50.228Z,98444.47
2022-11-01T15:13:21.159Z,98445.88
2022-11-01T15:16:02.507Z,98455.94
2022-11-01T15:18:31.715Z,98451.59
2022-11-01T15:21:01.362Z,98462.22
2022-11-01T15:23:36.743Z,98446.72
2022-11-01T15:26:10.592Z,98449.97
2022-11-01T15:28:44.147Z,98438.59
2022-11-01T15:31:12.117Z,98444.09
2022-11-01T15:33:40.228Z,98446.81
2022-11-01T15:36:19.527Z,98448.75
2022-11-01T15:38:52.232Z,98449.88
2022-11-01T15:41:24.838Z,98449.06
2022-11-01T15:43:54.545Z,98456.38
2022-11-01T15:46:24.094Z,98454.50
2022-11-01T15:48:52.800Z,98450.69
2022-11-01T15:51:24.167Z,98450.72
2022-11-01T15:53:57.206Z,98451.78
2022-11-01T15:56:40.433Z,98452.88
2022-11-01T15:59:18.594Z,98448.84
2022-11-01T16:01:48.213Z,98458.03
2022-11-01T16:04:19.789Z,98462.66
2022-11-01T16:06:52.228Z,98469.97
2022-11-01T16:09:38.689Z,98468.88
2022-11-01T16:12:17.374Z,98468.63
2022-11-01T16:14:52.032Z,98449.88
2022-11-01T16:17:25.267Z,98450.69
2022-11-01T16:19:53.771Z,98457.19
2022-11-01T16:22:31.549Z,98467.47
2022-11-01T16:25:21.719Z,98481.56
2022-11-01T16:27:57.271Z,98484.53
2022-11-01T16:30:47.126Z,98484.25
2022-11-01T16:33:21.803Z,98493.19
2022-11-01T16:35:51.423Z,98496.16
2022-11-01T16:38:31.701Z,98493.19
2022-11-01T16:41:09.255Z,98505.34
2022-11-01T16:43:38.717Z,98496.66
2022-11-01T16:46:06.764Z,98506.97
2022-11-01T16:48:50.808Z,98506.38
2022-11-01T16:51:25.158Z,98507.97
2022-11-01T16:53:55.864Z,98512.28
2022-11-01T16:56:36.695Z,98519.03
2022-11-01T16:59:22.618Z,98525.81
2022-11-01T17:01:57.603Z,98523.63
2022-11-01T17:04:29.308Z,98530.06
2022-11-01T17:06:59.088Z,98514.31
2022-11-01T17:09:35.558Z,98521.03
2022-11-01T17:12:08.156Z,98534.78
2022-11-01T17:17:17.067Z,98537.09
2022-11-01T17:19:58.687Z,98538.97
2022-11-01T17:22:36.527Z,98537.03
2022-11-01T17:25:05.368Z,98542.44
2022-11-01T17:27:33.319Z,98543.81
2022-11-01T17:30:05.321Z,98536.22
2022-11-01T17:32:38.086Z,98534.31
2022-11-01T17:35:10.075Z,98547.59
2022-11-01T17:37:43.876Z,98549.69
2022-11-01T17:40:19.228Z,98548.03
2022-11-01T17:42:47.258Z,98558.84
2022-11-01T17:45:16.588Z,98555.03
2022-11-01T17:47:54.837Z,98557.97
2022-11-01T17:50:25.066Z,98553.91
2022-11-01T17:52:54.250Z,98558.75
2022-11-01T17:55:23.430Z,98557.94
2022-11-01T17:57:51.360Z,98564.53
2022-11-01T18:00:21.541Z,98558.25
2022-11-01T18:02:51.302Z,98563.41
2022-11-01T18:05:19.204Z,98563.38
2022-11-01T18:07:49.807Z,98572.50
2022-11-01T18:10:24.750Z,98572.38
2022-11-01T18:13:06.598Z,98573.88
2022-11-01T18:15:42.968Z,98579.22
2022-11-01T18:18:34.392Z,98571.88
2022-11-01T18:21:13.075Z,98573.44
2022-11-01T18:23:43.929Z,98571.75
2022-11-01T18:26:16.726Z,98569.03
2022-11-01T18:28:45.927Z,98577.09
2022-11-01T18:31:24.036Z,98571.53
2022-11-01T18:34:01.587Z,98570.72
2022-11-01T18:36:41.140Z,98569.66
2022-11-01T18:39:31.362Z,98576.44
2022-11-01T18:42:01.962Z,98574.50
2022-11-01T18:44:32.216Z,98578.34
2022-11-01T18:47:07.635Z,98574.06
2022-11-01T18:49:35.556Z,98578.84
2022-11-01T18:52:03.557Z,98577.44
2022-11-01T18:54:33.042Z,98571.78
2022-11-01T18:57:11.957Z,98574.50
2022-11-01T18:59:41.683Z,98582.09
2022-11-01T19:02:17.717Z,98577.53
2022-11-01T19:04:47.902Z,98584.81
2022-11-01T19:07:19.094Z,98579.09
2022-11-01T19:09:54.962Z,98582.03
2022-11-01T19:12:29.701Z,98589.81
2022-11-01T19:15:00.835Z,98584.34
2022-11-01T19:17:38.807Z,98572.31
2022-11-01T19:20:22.028Z,98575.44
2022-11-01T19:22:51.674Z,98580.25
2022-11-01T19:25:26.595Z,98583.69
2022-11-01T19:28:00.161Z,98578.22
2022-11-01T19:30:32.260Z,98580.69
2022-11-01T19:33:24.229Z,98569.72
2022-11-01T19:36:01.129Z,98571.19
2022-11-01T19:38:32.374Z,98573.81
2022-11-01T19:41:02.706Z,98578.16
2022-11-01T19:43:31.209Z,98574.63
2022-11-01T19:46:00.131Z,98572.00
2022-11-01T19:48:36.746Z,98573.16
2022-11-01T19:51:16.140Z,98577.72
2022-11-01T19:53:51.152Z,98567.28
2022-11-01T19:56:29.482Z,98567.03
2022-11-01T19:59:04.797Z,98587.97
2022-11-01T20:01:41.646Z,98586.22
2022-11-01T20:04:40.607Z,98577.75
2022-11-01T20:07:17.123Z,98577.91
2022-11-01T20:09:58.940Z,98583.41
2022-11-01T20:12:44.743Z,98584.69
2022-11-01T20:15:29.126Z,98586.59
2022-11-01T20:18:04.645Z,98593.25
2022-11-01T20:20:46.625Z,98590.56
2022-11-01T20:23:26.425Z,98598.56
2022-11-01T20:25:59.587Z,98590.72
2022-11-01T20:28:29.897Z,98588.81
2022-11-01T20:30:59.512Z,98598.31
2022-11-01T20:33:39.407Z,98589.16
2022-11-01T20:36:26.032Z,98595.38
2022-11-01T20:39:05.818Z,98600.19
2022-11-01T20:42:02.114Z,98600.91
2022-11-01T20:44:33.064Z,98610.56
2022-11-01T20:47:12.934Z,98624.84
2022-11-01T20:49:57.303Z,98622.63
2022-11-01T20:52:39.585Z,98618.31
2022-11-01T20:55:12.328Z,98623.13
2022-11-01T20:57:46.778Z,98620.41
2022-11-01T21:00:28.763Z,98606.47
2022-11-01T21:03:03.197Z,98621.25
2022-11-01T21:05:47.334Z,98620.19
2022-11-01T21:08:35.956Z,98621.91
2022-11-01T21:11:09.837Z,98619.22
2022-11-01T21:13:47.173Z,98613.59
2022-11-01T21:16:23.945Z,98614.31
2022-11-01T21:19:02.731Z,98613.81
2022-11-01T21:21:35.345Z,98611.84
2022-11-01T21:24:27.445Z,98617.00
2022-11-01T21:27:01.601Z,98620.53
2022-11-01T21:29:36.738Z,98619.94
2022-11-01T21:32:28.242Z,98626.88
2022-11-01T21:34:57.905Z,98619.16
2022-11-01T21:37:29.691Z,98618.94
2022-11-01T21:40:05.984Z,98626.78
2022-11-01T21:42:36.747Z,98625.97
2022-11-01T21:45:30.778Z,98632.41
2022-11-01T21:48:02.639Z,98636.16
2022-11-01T21:50:30.856Z,98636.66
2022-11-01T21:52:58.748Z,98634.66
2022-11-01T21:55:28.114Z,98633.50
2022-11-01T21:57:56.000Z,98629.66
2022-11-01T22:00:24.097Z,98626.97
2022-11-01T22:02:52.030Z,98630.13
2022-11-01T22:05:19.865Z,98627.81
2022-11-01T22:07:47.929Z,98626.41
2022-11-01T22:10:15.862Z,98625.03
2022-11-01T22:12:45.141Z,98625.53
2022-11-01T22:15:14.199Z,98639.47
2022-11-01T22:17:42.070Z,98642.06
2022-11-01T22:20:10.559Z,98636.34
2022-11-01T22:22:38.466Z,98639.25
2022-11-01T22:25:07.244Z,98641.13
2022-11-01T22:27:35.076Z,98638.91
2022-11-01T22:30:04.838Z,98638.56
2022-11-01T22:32:32.718Z,98634.00
2022-11-01T22:35:00.701Z,98628.50
2022-11-01T22:37:30.121Z,98635.53
2022-11-01T22:39:58.243Z,98634.13
2022-11-01T22:42:27.364Z,98634.13
2022-11-01T22:44:55.487Z,98650.19
2022-11-01T22:47:28.737Z,98647.97
2022-11-01T22:50:00.089Z,98640.00
2022-11-01T22:52:32.630Z,98652.88
2022-11-01T22:55:04.860Z,98658.25
2022-11-01T22:57:35.963Z,98654.16
2022-11-01T23:00:26.842Z,98649.59
2022-11-01T23:03:01.439Z,98657.09
2022-11-01T23:05:29.959Z,98664.25
2022-11-01T23:08:00.789Z,98660.03
2022-11-01T23:10:31.947Z,98670.69
2022-11-01T23:13:21.118Z,98673.38
2022-11-01T23:15:49.050Z,98668.34
2022-11-01T23:18:23.961Z,98675.00
2022-11-01T23:20:56.246Z,98674.41
2022-11-01T23:23:25.389Z,98678.38
2022-11-01T23:25:54.557Z,98673.97
2022-11-01T23:28:23.050Z,98675.25
2022-11-01T23:30:51.768Z,98672.78
2022-11-01T23:33:23.240Z,98676.53
2022-11-01T23:35:54.471Z,98675.25
2022-11-01T23:38:25.744Z,98672.44
2022-11-01T23:40:55.231Z,98682.59
2022-11-01T23:43:25.445Z,98680.38
2022-11-01T23:45:53.429Z,98683.31
2022-11-01T23:48:23.985Z,98686.00
2022-11-01T23:50:54.214Z,98684.34
2022-11-01T23:53:29.127Z,98682.47
2022-11-01T23:55:57.213Z,98685.41
